Time;durP1;ratioP1;P1;durP2;ratioP2;P2;SDS_P1;SDS_P2;PMS_P1;PMS_P2;Temp;Humidity;BMP_temperature;BMP_pressure;BME280_temperature;BME280_humidity;BME280_pressure;Samples;Min_cycle;Max_cycle;Signal;HPM_P1;HPM_P2
2021/01/09 00:02:08;;;;;;;6.07;5.13;;;;;;;;;;5039839;28;20504;-58
2021/01/09 00:04:34;;;;;;;7.53;5.63;;;;;;;;;;5058711;28;20505;-58
2021/01/09 00:07:00;;;;;;;7.00;5.60;;;;;;;;;;5040884;28;20466;-58
2021/01/09 00:09:26;;;;;;;7.50;5.70;;;;;;;;;;5053503;28;20423;-59
2021/01/09 00:11:52;;;;;;;7.33;6.03;;;;;;;;;;5037278;28;20439;-59
2021/01/09 00:14:20;;;;;;;6.77;5.63;;;;;;;;;;5053237;28;20434;-58
2021/01/09 00:16:47;;;;;;;6.40;5.30;;;;;;;;;;5054409;28;20479;-60
2021/01/09 00:19:13;;;;;;;7.57;6.00;;;;;;;;;;5071215;28;20402;-58
2021/01/09 00:21:39;;;;;;;6.97;5.13;;;;;;;;;;5054328;28;20420;-59
2021/01/09 00:24:06;;;;;;;6.83;5.80;;;;;;;;;;5061310;28;20426;-59
2021/01/09 00:26:33;;;;;;;7.30;5.43;;;;;;;;;;5054237;28;20604;-58
2021/01/09 00:28:59;;;;;;;6.70;5.83;;;;;;;;;;5039372;28;20418;-59
2021/01/09 00:31:25;;;;;;;6.07;5.40;;;;;;;;;;5053379;28;20451;-59
2021/01/09 00:33:51;;;;;;;7.77;6.17;;;;;;;;;;5058191;28;20423;-58
2021/01/09 00:36:17;;;;;;;6.60;5.63;;;;;;;;;;5048379;28;20470;-58
2021/01/09 00:38:43;;;;;;;6.93;5.37;;;;;;;;;;5060128;28;20477;-58
2021/01/09 00:41:09;;;;;;;6.07;4.97;;;;;;;;;;5056907;28;20824;-59
2021/01/09 00:43:35;;;;;;;7.20;6.03;;;;;;;;;;5052932;28;20464;-60
2021/01/09 00:46:01;;;;;;;6.10;5.47;;;;;;;;;;5044815;28;21032;-60
2021/01/09 00:48:27;;;;;;;6.47;5.13;;;;;;;;;;5064267;28;20253;-59
2021/01/09 00:50:53;;;;;;;6.67;5.60;;;;;;;;;;5056633;28;20434;-58
2021/01/09 00:53:19;;;;;;;7.20;5.90;;;;;;;;;;5044333;28;20237;-58
2021/01/09 00:55:46;;;;;;;5.47;4.97;;;;;;;;;;5042110;28;20750;-59
2021/01/09 00:58:12;;;;;;;6.97;5.30;;;;;;;;;;5061624;28;20532;-59
2021/01/09 01:00:38;;;;;;;5.53;4.80;;;;;;;;;;5039326;28;20432;-58
2021/01/09 01:03:05;;;;;;;7.60;6.17;;;;;;;;;;5053999;28;20467;-58
2021/01/09 01:05:31;;;;;;;7.53;5.70;;;;;;;;;;5056218;28;20808;-58
2021/01/09 01:07:57;;;;;;;6.10;4.93;;;;;;;;;;5064295;28;20518;-59
2021/01/09 01:10:23;;;;;;;6.07;5.27;;;;;;;;;;5052427;28;20190;-58
2021/01/09 01:12:49;;;;;;;6.70;5.70;;;;;;;;;;5053750;28;20472;-60
2021/01/09 01:15:15;;;;;;;6.83;5.17;;;;;;;;;;5053614;28;21175;-58
2021/01/09 01:17:46;;;;;;;5.90;5.30;;;;;;;;;;5036987;28;20435;-59
2021/01/09 01:20:13;;;;;;;7.43;5.70;;;;;;;;;;5057620;28;20910;-58
2021/01/09 01:22:39;;;;;;;7.03;5.27;;;;;;;;;;5066612;28;20423;-58
2021/01/09 01:25:05;;;;;;;5.43;4.80;;;;;;;;;;5066683;28;20489;-58
2021/01/09 01:27:31;;;;;;;6.67;5.60;;;;;;;;;;5054197;28;20975;-61
2021/01/09 01:29:57;;;;;;;5.83;5.23;;;;;;;;;;5052782;28;20458;-59
2021/01/09 01:32:23;;;;;;;8.10;5.73;;;;;;;;;;5058088;28;20257;-58
2021/01/09 01:34:49;;;;;;;5.67;5.03;;;;;;;;;;5056348;28;20945;-58
2021/01/09 01:37:15;;;;;;;6.73;5.73;;;;;;;;;;5039494;28;20191;-58
2021/01/09 01:39:41;;;;;;;7.40;5.50;;;;;;;;;;5063760;28;20691;-57
2021/01/09 01:42:07;;;;;;;5.50;4.83;;;;;;;;;;5057280;28;20445;-59
2021/01/09 01:44:33;;;;;;;6.13;5.30;;;;;;;;;;5063238;28;20442;-59
2021/01/09 01:47:00;;;;;;;6.03;5.37;;;;;;;;;;5036676;28;20840;-58
2021/01/09 01:49:27;;;;;;;6.40;5.40;;;;;;;;;;5035905;28;20430;-58
2021/01/09 01:51:53;;;;;;;5.63;5.10;;;;;;;;;;5036064;28;20453;-58
2021/01/09 01:54:19;;;;;;;7.33;5.63;;;;;;;;;;5071439;28;20430;-58
2021/01/09 01:56:48;;;;;;;6.43;5.03;;;;;;;;;;5039646;28;20434;-58
2021/01/09 01:59:14;;;;;;;7.90;5.73;;;;;;;;;;5052714;28;20505;-58
2021/01/09 02:01:41;;;;;;;8.10;5.67;;;;;;;;;;5039546;28;20424;-58
2021/01/09 02:04:08;;;;;;;7.30;5.23;;;;;;;;;;5053564;28;20513;-59
2021/01/09 02:06:35;;;;;;;6.53;5.77;;;;;;;;;;5057012;28;20422;-58
2021/01/09 02:09:06;;;;;;;7.27;5.40;;;;;;;;;;5051794;28;20427;-58
2021/01/09 02:11:51;;;;;;;7.40;5.63;;;;;;;;;;5054300;28;20434;-60
2021/01/09 02:14:35;;;;;;;7.20;5.30;;;;;;;;;;5049809;28;20430;-58
2021/01/09 02:17:02;;;;;;;6.23;5.00;;;;;;;;;;5055157;28;20419;-58
2021/01/09 02:19:29;;;;;;;6.17;5.00;;;;;;;;;;5051557;28;20910;-58
2021/01/09 02:21:58;;;;;;;5.53;5.03;;;;;;;;;;5034258;28;21056;-58
2021/01/09 02:24:24;;;;;;;6.37;5.40;;;;;;;;;;5061957;28;20438;-58
2021/01/09 02:26:50;;;;;;;7.10;5.57;;;;;;;;;;5049887;28;20431;-58
2021/01/09 02:29:16;;;;;;;5.77;4.87;;;;;;;;;;5053701;28;20192;-59
2021/01/09 02:31:55;;;;;;;5.30;4.80;;;;;;;;;;5050753;28;21669;-59
2021/01/09 02:34:21;;;;;;;6.37;5.50;;;;;;;;;;5058790;28;20510;-58
2021/01/09 02:36:48;;;;;;;5.03;4.20;;;;;;;;;;5063413;28;20434;-60
2021/01/09 02:39:14;;;;;;;5.37;4.77;;;;;;;;;;5059561;28;20962;-58
2021/01/09 02:41:40;;;;;;;6.30;5.23;;;;;;;;;;5031921;28;20430;-59
2021/01/09 02:44:10;;;;;;;7.00;5.60;;;;;;;;;;5037799;28;20484;-59
2021/01/09 02:46:37;;;;;;;6.17;5.07;;;;;;;;;;5039337;28;20468;-59
2021/01/09 02:49:04;;;;;;;6.07;4.83;;;;;;;;;;5059431;28;20415;-59
2021/01/09 02:51:30;;;;;;;12.07;5.10;;;;;;;;;;5055488;28;20415;-59
2021/01/09 02:53:56;;;;;;;5.17;4.40;;;;;;;;;;5068936;28;20507;-58
2021/01/09 02:56:22;;;;;;;5.20;4.70;;;;;;;;;;5052624;28;20546;-58
2021/01/09 02:58:48;;;;;;;5.20;4.40;;;;;;;;;;5059651;28;20530;-59
2021/01/09 03:01:14;;;;;;;5.63;4.80;;;;;;;;;;5053870;28;20543;-58
2021/01/09 03:03:40;;;;;;;5.73;5.00;;;;;;;;;;5045281;28;20523;-58
2021/01/09 03:06:06;;;;;;;6.10;4.77;;;;;;;;;;5067739;28;20420;-58
2021/01/09 03:08:32;;;;;;;6.17;5.17;;;;;;;;;;5070029;28;20880;-58
2021/01/09 03:10:58;;;;;;;5.90;4.73;;;;;;;;;;5052831;28;20196;-60
2021/01/09 03:13:24;;;;;;;4.80;4.33;;;;;;;;;;5049698;28;20181;-58
2021/01/09 03:15:50;;;;;;;5.67;4.97;;;;;;;;;;5049406;28;20454;-58
2021/01/09 03:18:16;;;;;;;6.03;4.73;;;;;;;;;;5060580;28;20185;-58
2021/01/09 03:20:42;;;;;;;6.67;4.93;;;;;;;;;;5032390;28;21197;-58
2021/01/09 03:23:08;;;;;;;6.60;5.03;;;;;;;;;;5068119;28;20426;-59
2021/01/09 03:25:34;;;;;;;5.97;5.37;;;;;;;;;;5042139;28;20456;-58
2021/01/09 03:28:01;;;;;;;6.77;5.00;;;;;;;;;;5049185;28;20471;-59
2021/01/09 03:30:27;;;;;;;5.67;5.03;;;;;;;;;;5049083;28;20858;-58
2021/01/09 03:32:53;;;;;;;6.10;4.67;;;;;;;;;;5038548;28;20438;-59
2021/01/09 03:35:22;;;;;;;5.57;4.90;;;;;;;;;;5049663;28;20451;-59
2021/01/09 03:37:48;;;;;;;5.90;4.93;;;;;;;;;;5064976;28;20184;-60
2021/01/09 03:40:14;;;;;;;6.30;4.80;;;;;;;;;;5062079;28;20979;-58
2021/01/09 03:42:40;;;;;;;6.53;4.87;;;;;;;;;;5050343;28;20451;-59
2021/01/09 03:45:06;;;;;;;5.27;4.47;;;;;;;;;;5052728;28;20435;-58
2021/01/09 03:47:32;;;;;;;6.40;4.73;;;;;;;;;;5035662;28;20212;-58
2021/01/09 03:49:58;;;;;;;5.67;4.67;;;;;;;;;;5038800;28;20724;-58
2021/01/09 03:52:25;;;;;;;5.63;4.97;;;;;;;;;;5064672;28;20264;-59
2021/01/09 03:54:51;;;;;;;5.93;5.30;;;;;;;;;;5068212;28;20196;-58
2021/01/09 03:57:17;;;;;;;6.80;4.93;;;;;;;;;;5050520;28;20428;-59
2021/01/09 03:59:43;;;;;;;6.37;4.77;;;;;;;;;;5037907;28;20180;-59
2021/01/09 04:02:09;;;;;;;5.73;4.90;;;;;;;;;;5056425;28;20212;-59
2021/01/09 04:04:35;;;;;;;6.93;5.30;;;;;;;;;;5056613;28;20662;-59
2021/01/09 04:07:01;;;;;;;5.83;4.73;;;;;;;;;;5040537;28;20176;-58
2021/01/09 04:09:27;;;;;;;6.63;5.10;;;;;;;;;;5054854;28;20408;-58
2021/01/09 04:11:53;;;;;;;6.60;5.10;;;;;;;;;;5037811;28;20816;-58
2021/01/09 04:14:19;;;;;;;6.40;5.20;;;;;;;;;;5054283;28;20496;-59
2021/01/09 04:16:45;;;;;;;5.53;4.80;;;;;;;;;;5035448;28;20181;-58
2021/01/09 04:19:11;;;;;;;5.93;5.00;;;;;;;;;;5060159;28;20165;-58
2021/01/09 04:21:51;;;;;;;6.23;4.60;;;;;;;;;;5065522;28;20435;-59
2021/01/09 04:24:18;;;;;;;5.17;4.67;;;;;;;;;;5053302;28;20535;-59
2021/01/09 04:26:44;;;;;;;6.40;5.00;;;;;;;;;;5055832;28;20470;-61
2021/01/09 04:29:10;;;;;;;6.97;4.67;;;;;;;;;;5051893;28;20459;-59
2021/01/09 04:31:36;;;;;;;6.23;4.87;;;;;;;;;;5062361;28;20537;-58
2021/01/09 04:34:02;;;;;;;5.90;4.97;;;;;;;;;;5054524;28;20827;-58
2021/01/09 04:36:28;;;;;;;5.73;4.77;;;;;;;;;;5058582;28;21228;-58
2021/01/09 04:38:54;;;;;;;5.43;4.47;;;;;;;;;;5054891;28;20460;-59
2021/01/09 04:41:20;;;;;;;6.10;4.57;;;;;;;;;;5056637;28;20188;-59
2021/01/09 04:43:49;;;;;;;6.07;4.87;;;;;;;;;;5055298;28;20264;-59
2021/01/09 04:46:19;;;;;;;5.60;4.83;;;;;;;;;;5036050;28;20438;-59
2021/01/09 04:48:45;;;;;;;5.70;4.73;;;;;;;;;;5063815;28;20804;-58
2021/01/09 04:51:11;;;;;;;6.30;4.27;;;;;;;;;;5067402;28;20423;-58
2021/01/09 04:53:40;;;;;;;5.30;4.80;;;;;;;;;;5055774;28;20435;-60
2021/01/09 04:56:06;;;;;;;5.03;4.40;;;;;;;;;;5056135;28;20535;-59
2021/01/09 04:58:32;;;;;;;7.77;5.43;;;;;;;;;;5054127;28;20867;-58
2021/01/09 05:00:58;;;;;;;6.80;4.80;;;;;;;;;;5053788;28;20930;-59
2021/01/09 05:03:24;;;;;;;5.20;4.10;;;;;;;;;;5062387;28;20462;-60
2021/01/09 05:05:50;;;;;;;6.53;5.07;;;;;;;;;;5065915;28;20484;-58
2021/01/09 05:08:16;;;;;;;5.83;5.17;;;;;;;;;;5068399;28;21000;-57
2021/01/09 05:10:43;;;;;;;5.30;4.77;;;;;;;;;;5057825;28;20437;-58
2021/01/09 05:13:09;;;;;;;6.90;5.50;;;;;;;;;;5051806;28;20443;-60
2021/01/09 05:15:36;;;;;;;6.93;5.30;;;;;;;;;;5056119;28;20466;-58
2021/01/09 05:18:02;;;;;;;7.20;5.37;;;;;;;;;;5037952;28;20427;-58
2021/01/09 05:20:28;;;;;;;6.73;5.00;;;;;;;;;;5069033;28;20414;-58
2021/01/09 05:22:55;;;;;;;6.63;5.00;;;;;;;;;;5049094;28;20419;-60
2021/01/09 05:25:25;;;;;;;7.10;5.27;;;;;;;;;;5053061;28;20487;-58
2021/01/09 05:27:54;;;;;;;7.80;5.17;;;;;;;;;;5053368;28;20526;-58
2021/01/09 05:30:21;;;;;;;5.57;4.63;;;;;;;;;;5053540;28;20490;-58
2021/01/09 05:32:47;;;;;;;6.07;5.27;;;;;;;;;;5055064;28;20427;-58
2021/01/09 05:35:14;;;;;;;6.60;5.33;;;;;;;;;;5058625;28;20801;-58
2021/01/09 05:37:40;;;;;;;8.63;5.67;;;;;;;;;;5065103;28;20431;-60
2021/01/09 05:40:06;;;;;;;7.40;5.70;;;;;;;;;;5050882;28;20423;-58
2021/01/09 05:42:34;;;;;;;8.63;5.43;;;;;;;;;;5034856;28;20938;-58
2021/01/09 05:45:00;;;;;;;7.97;5.87;;;;;;;;;;5024650;28;20969;-58
2021/01/09 05:47:29;;;;;;;6.53;5.40;;;;;;;;;;5055881;28;20426;-58
2021/01/09 05:49:56;;;;;;;6.50;4.93;;;;;;;;;;5059798;28;20411;-58
2021/01/09 05:52:25;;;;;;;8.33;5.53;;;;;;;;;;5051913;28;20424;-58
2021/01/09 05:54:58;;;;;;;7.10;5.00;;;;;;;;;;5048737;28;20671;-58
2021/01/09 05:57:28;;;;;;;7.93;5.43;;;;;;;;;;5056516;28;20440;-58
2021/01/09 05:59:54;;;;;;;6.43;4.97;;;;;;;;;;5029595;28;20513;-58
2021/01/09 06:02:22;;;;;;;8.07;5.17;;;;;;;;;;5056586;28;20873;-58
2021/01/09 06:04:49;;;;;;;7.03;5.03;;;;;;;;;;5052531;28;20512;-58
2021/01/09 06:07:20;;;;;;;9.07;5.70;;;;;;;;;;5043701;28;20427;-57
2021/01/09 06:09:57;;;;;;;8.73;6.10;;;;;;;;;;5069020;28;20799;-58
2021/01/09 06:12:23;;;;;;;8.13;5.60;;;;;;;;;;5049534;28;21399;-57
2021/01/09 06:14:50;;;;;;;7.93;5.53;;;;;;;;;;5035122;28;20972;-58
2021/01/09 06:17:18;;;;;;;6.97;5.10;;;;;;;;;;5054751;28;20435;-58
2021/01/09 06:19:44;;;;;;;7.37;5.30;;;;;;;;;;5060513;28;20506;-58
2021/01/09 06:22:11;;;;;;;7.73;5.63;;;;;;;;;;5069386;28;20487;-58
2021/01/09 06:24:38;;;;;;;7.73;5.73;;;;;;;;;;5050426;28;20423;-58
2021/01/09 06:27:04;;;;;;;6.53;5.53;;;;;;;;;;5052454;28;20505;-58
2021/01/09 06:29:31;;;;;;;8.70;6.40;;;;;;;;;;5050332;28;20431;-59
2021/01/09 06:32:00;;;;;;;9.03;5.57;;;;;;;;;;5050742;28;20431;-58
2021/01/09 06:34:27;;;;;;;8.83;5.63;;;;;;;;;;5057574;28;20426;-58
2021/01/09 06:37:03;;;;;;;6.90;5.43;;;;;;;;;;5069545;28;20411;-58
2021/01/09 06:39:36;;;;;;;8.13;6.20;;;;;;;;;;5045105;28;20410;-58
2021/01/09 06:42:04;;;;;;;6.47;5.03;;;;;;;;;;5048940;28;21872;-58
2021/01/09 06:44:31;;;;;;;8.10;5.70;;;;;;;;;;5051157;28;20915;-59
2021/01/09 06:46:57;;;;;;;7.73;5.70;;;;;;;;;;5054141;28;20428;-58
2021/01/09 06:49:27;;;;;;;7.50;5.20;;;;;;;;;;5059398;28;20429;-58
2021/01/09 06:51:54;;;;;;;7.13;5.43;;;;;;;;;;5053966;28;20414;-58
2021/01/09 06:54:20;;;;;;;7.67;5.57;;;;;;;;;;5036302;28;20531;-59
2021/01/09 06:56:47;;;;;;;5.73;4.60;;;;;;;;;;5051076;28;20525;-58
2021/01/09 06:59:28;;;;;;;9.20;5.90;;;;;;;;;;5032310;28;20442;-57
2021/01/09 07:02:09;;;;;;;8.07;5.10;;;;;;;;;;5053431;28;20450;-59
2021/01/09 07:04:54;;;;;;;7.83;5.80;;;;;;;;;;5063728;28;20426;-58
2021/01/09 07:07:26;;;;;;;8.10;5.43;;;;;;;;;;5065995;28;20423;-58
2021/01/09 07:09:52;;;;;;;7.87;5.13;;;;;;;;;;5067011;28;20419;-58
2021/01/09 07:12:18;;;;;;;7.93;5.73;;;;;;;;;;5050593;28;20450;-59
2021/01/09 07:14:45;;;;;;;9.57;5.73;;;;;;;;;;5049747;28;20566;-58
2021/01/09 07:17:11;;;;;;;7.37;5.57;;;;;;;;;;5052942;28;21061;-58
2021/01/09 07:19:39;;;;;;;9.13;6.93;;;;;;;;;;5065608;28;20409;-57
2021/01/09 07:22:07;;;;;;;8.70;6.17;;;;;;;;;;5051460;28;20418;-58
2021/01/09 07:24:35;;;;;;;8.23;5.70;;;;;;;;;;5060824;28;20775;-58
2021/01/09 07:27:01;;;;;;;9.57;6.57;;;;;;;;;;5052739;28;20465;-60
2021/01/09 07:29:27;;;;;;;9.37;6.07;;;;;;;;;;5049138;28;20426;-59
2021/01/09 07:31:53;;;;;;;7.93;6.27;;;;;;;;;;5051111;28;20542;-58
2021/01/09 07:34:23;;;;;;;10.70;6.30;;;;;;;;;;5033798;28;20419;-58
2021/01/09 07:36:53;;;;;;;10.20;7.03;;;;;;;;;;5031944;28;20934;-58
2021/01/09 07:39:24;;;;;;;9.13;6.03;;;;;;;;;;5032425;28;20410;-58
2021/01/09 07:41:51;;;;;;;9.10;5.87;;;;;;;;;;5032179;28;20434;-59
2021/01/09 07:44:18;;;;;;;8.73;5.50;;;;;;;;;;5057050;28;20462;-59
2021/01/09 07:46:50;;;;;;;8.30;5.50;;;;;;;;;;5058439;28;20438;-58
2021/01/09 07:49:24;;;;;;;9.23;6.27;;;;;;;;;;5065948;28;20779;-58
2021/01/09 07:51:51;;;;;;;12.17;6.53;;;;;;;;;;5073416;28;20425;-59
2021/01/09 07:54:35;;;;;;;10.87;6.90;;;;;;;;;;5059341;28;20423;-58
2021/01/09 07:57:06;;;;;;;12.17;7.20;;;;;;;;;;5042195;28;20785;-61
2021/01/09 07:59:32;;;;;;;14.77;7.33;;;;;;;;;;5053923;28;20429;-61
2021/01/09 08:01:58;;;;;;;11.33;8.30;;;;;;;;;;5059959;28;20428;-58
2021/01/09 08:04:24;;;;;;;9.60;6.43;;;;;;;;;;5062235;28;20492;-58
2021/01/09 08:06:50;;;;;;;12.67;6.93;;;;;;;;;;5064176;28;20173;-58
2021/01/09 08:09:16;;;;;;;13.10;7.00;;;;;;;;;;5050169;28;20809;-59
2021/01/09 08:11:46;;;;;;;12.00;7.47;;;;;;;;;;5058193;28;20426;-61
2021/01/09 08:14:12;;;;;;;14.07;6.87;;;;;;;;;;5050265;28;20954;-61
2021/01/09 08:16:38;;;;;;;17.43;7.93;;;;;;;;;;5052896;28;20499;-59
2021/01/09 08:19:14;;;;;;;12.73;7.83;;;;;;;;;;5046603;28;20451;-58
2021/01/09 08:21:40;;;;;;;15.43;8.40;;;;;;;;;;5050741;28;20388;-58
2021/01/09 08:24:07;;;;;;;15.57;8.23;;;;;;;;;;5061465;28;21325;-58
2021/01/09 08:26:33;;;;;;;17.63;8.40;;;;;;;;;;5037520;28;20938;-58
2021/01/09 08:28:59;;;;;;;13.87;8.13;;;;;;;;;;5030533;28;20434;-58
2021/01/09 08:31:26;;;;;;;13.20;8.30;;;;;;;;;;5054030;28;20466;-60
2021/01/09 08:33:52;;;;;;;13.90;8.03;;;;;;;;;;5054901;28;20573;-58
2021/01/09 08:36:21;;;;;;;17.00;9.47;;;;;;;;;;5063977;28;20466;-58
2021/01/09 08:38:48;;;;;;;16.30;8.03;;;;;;;;;;5064604;28;20770;-59
2021/01/09 08:41:14;;;;;;;16.07;9.00;;;;;;;;;;5033417;28;20988;-58
2021/01/09 08:43:40;;;;;;;15.50;8.17;;;;;;;;;;5040143;28;20419;-57
2021/01/09 08:46:06;;;;;;;16.30;8.43;;;;;;;;;;5054691;28;20430;-57
2021/01/09 08:48:36;;;;;;;16.23;8.43;;;;;;;;;;5046383;28;20184;-58
2021/01/09 08:51:07;;;;;;;18.43;8.87;;;;;;;;;;5070497;28;20507;-59
2021/01/09 08:53:54;;;;;;;17.17;8.83;;;;;;;;;;5052020;28;20451;-59
2021/01/09 08:56:22;;;;;;;14.93;8.77;;;;;;;;;;5036123;28;21069;-58
2021/01/09 08:58:48;;;;;;;18.90;9.20;;;;;;;;;;5033326;28;20471;-58
2021/01/09 09:01:15;;;;;;;20.00;9.17;;;;;;;;;;5055930;28;20892;-58
2021/01/09 09:03:45;;;;;;;19.80;9.60;;;;;;;;;;5050757;28;20542;-58
2021/01/09 09:06:15;;;;;;;17.23;8.73;;;;;;;;;;5034101;28;20461;-58
2021/01/09 09:08:42;;;;;;;18.37;8.77;;;;;;;;;;5051390;28;20442;-59
2021/01/09 09:11:08;;;;;;;21.57;8.60;;;;;;;;;;5034362;28;20449;-58
2021/01/09 09:13:34;;;;;;;19.90;8.63;;;;;;;;;;5054720;28;20429;-58
2021/01/09 09:16:15;;;;;;;18.90;9.47;;;;;;;;;;5039563;28;20450;-58
2021/01/09 09:18:41;;;;;;;24.87;9.53;;;;;;;;;;5055013;28;20412;-58
2021/01/09 09:21:09;;;;;;;16.33;8.97;;;;;;;;;;5054414;28;20419;-59
2021/01/09 09:23:36;;;;;;;19.47;8.63;;;;;;;;;;5045422;28;20758;-58
2021/01/09 09:26:12;;;;;;;21.60;8.90;;;;;;;;;;5051032;28;20419;-58
2021/01/09 09:28:49;;;;;;;21.37;9.63;;;;;;;;;;5070569;28;20414;-58
2021/01/09 09:31:32;;;;;;;19.20;8.70;;;;;;;;;;5045924;28;20950;-59
2021/01/09 09:34:11;;;;;;;19.50;9.40;;;;;;;;;;5054542;28;20806;-58
2021/01/09 09:36:41;;;;;;;17.53;9.33;;;;;;;;;;5061828;28;20796;-58
2021/01/09 09:39:17;;;;;;;14.50;8.73;;;;;;;;;;5071414;28;20418;-59
2021/01/09 09:41:52;;;;;;;20.00;9.27;;;;;;;;;;5070470;28;20464;-59
2021/01/09 09:44:18;;;;;;;21.93;9.20;;;;;;;;;;5069532;28;20402;-58
2021/01/09 09:46:45;;;;;;;19.33;10.33;;;;;;;;;;5048096;28;20419;-58
2021/01/09 09:49:11;;;;;;;19.37;9.13;;;;;;;;;;5045867;28;20439;-58
2021/01/09 09:51:37;;;;;;;22.57;9.53;;;;;;;;;;5061921;28;20433;-58
2021/01/09 09:54:04;;;;;;;14.00;8.33;;;;;;;;;;5059166;28;20425;-58
2021/01/09 09:56:37;;;;;;;19.17;10.27;;;;;;;;;;5063556;28;20459;-58
2021/01/09 09:59:05;;;;;;;19.90;9.63;;;;;;;;;;5054207;28;20510;-57
2021/01/09 10:01:31;;;;;;;19.67;9.73;;;;;;;;;;5056042;28;20408;-58
2021/01/09 10:03:57;;;;;;;18.10;10.00;;;;;;;;;;5064955;28;20837;-57
2021/01/09 10:06:33;;;;;;;21.57;9.47;;;;;;;;;;5044385;28;20416;-58
2021/01/09 10:09:08;;;;;;;17.73;9.07;;;;;;;;;;5037619;28;20431;-57
2021/01/09 10:11:34;;;;;;;18.40;9.73;;;;;;;;;;5060573;28;20852;-58
2021/01/09 10:14:04;;;;;;;21.90;10.67;;;;;;;;;;5067876;28;20462;-58
2021/01/09 10:16:30;;;;;;;19.40;10.33;;;;;;;;;;5060147;28;20459;-58
2021/01/09 10:18:56;;;;;;;21.80;10.37;;;;;;;;;;5053623;28;20530;-58
2021/01/09 10:21:27;;;;;;;17.20;10.37;;;;;;;;;;5054239;28;20875;-59
2021/01/09 10:23:53;;;;;;;23.87;11.17;;;;;;;;;;5061801;28;20415;-59
2021/01/09 10:26:29;;;;;;;21.27;11.07;;;;;;;;;;5066479;28;20784;-59
2021/01/09 10:28:55;;;;;;;20.97;11.40;;;;;;;;;;5055492;28;20878;-59
2021/01/09 10:31:31;;;;;;;24.93;11.53;;;;;;;;;;5052869;28;20454;-59
2021/01/09 10:33:57;;;;;;;25.70;11.07;;;;;;;;;;5057213;28;20467;-58
2021/01/09 10:36:24;;;;;;;24.17;10.77;;;;;;;;;;5050825;28;20465;-58
2021/01/09 10:38:50;;;;;;;18.33;10.53;;;;;;;;;;5069832;28;20456;-58
2021/01/09 10:41:16;;;;;;;23.87;11.23;;;;;;;;;;5068572;28;20438;-59
2021/01/09 10:43:42;;;;;;;22.13;10.43;;;;;;;;;;5065348;28;20434;-58
2021/01/09 10:46:08;;;;;;;18.13;10.50;;;;;;;;;;5060461;28;20422;-58
2021/01/09 10:48:35;;;;;;;18.13;10.50;;;;;;;;;;5044559;28;20595;-59
2021/01/09 10:51:01;;;;;;;22.87;12.10;;;;;;;;;;5051596;28;20748;-59
2021/01/09 10:53:27;;;;;;;19.47;11.30;;;;;;;;;;5064978;28;20419;-59
2021/01/09 10:55:57;;;;;;;22.60;11.87;;;;;;;;;;5050250;28;20801;-59
2021/01/09 10:58:23;;;;;;;19.27;11.53;;;;;;;;;;5036407;28;20527;-59
2021/01/09 11:00:49;;;;;;;16.70;11.47;;;;;;;;;;5069456;28;20419;-59
2021/01/09 11:03:15;;;;;;;26.67;11.60;;;;;;;;;;5055302;28;20768;-59
2021/01/09 11:05:41;;;;;;;21.93;14.30;;;;;;;;;;5035911;28;20470;-59
2021/01/09 11:08:07;;;;;;;31.63;14.30;;;;;;;;;;5060303;28;20990;-59
2021/01/09 11:10:33;;;;;;;25.53;13.70;;;;;;;;;;5059789;28;20469;-57
2021/01/09 11:12:59;;;;;;;26.70;14.03;;;;;;;;;;5043446;28;20482;-57
2021/01/09 11:15:25;;;;;;;32.50;14.83;;;;;;;;;;5052156;28;21362;-57
2021/01/09 11:17:51;;;;;;;33.60;15.80;;;;;;;;;;5049653;28;20454;-58
2021/01/09 11:20:17;;;;;;;33.63;17.37;;;;;;;;;;5042537;28;20179;-57
2021/01/09 11:22:43;;;;;;;35.53;17.03;;;;;;;;;;5056820;28;20439;-57
2021/01/09 11:25:10;;;;;;;28.33;15.63;;;;;;;;;;5069132;28;20180;-57
2021/01/09 11:27:36;;;;;;;32.00;16.87;;;;;;;;;;5072999;28;20513;-60
2021/01/09 11:30:02;;;;;;;37.77;17.50;;;;;;;;;;5053872;28;20538;-59
2021/01/09 11:32:28;;;;;;;33.43;16.63;;;;;;;;;;5054888;28;20539;-58
2021/01/09 11:34:54;;;;;;;36.43;16.87;;;;;;;;;;5054484;28;20949;-58
2021/01/09 11:37:22;;;;;;;30.90;16.13;;;;;;;;;;5059037;28;20493;-58
2021/01/09 11:39:49;;;;;;;27.47;15.17;;;;;;;;;;5056415;28;20427;-58
2021/01/09 11:42:15;;;;;;;32.33;16.23;;;;;;;;;;5060278;28;20458;-58
2021/01/09 11:44:41;;;;;;;32.93;15.70;;;;;;;;;;5054343;28;20921;-58
2021/01/09 11:47:07;;;;;;;25.87;13.10;;;;;;;;;;5048234;28;20489;-58
2021/01/09 11:49:33;;;;;;;26.80;14.20;;;;;;;;;;5064959;28;20185;-58
2021/01/09 11:52:02;;;;;;;28.83;13.63;;;;;;;;;;5057631;28;20423;-58
2021/01/09 11:54:28;;;;;;;21.00;13.03;;;;;;;;;;5055720;28;20459;-58
2021/01/09 11:56:55;;;;;;;24.80;14.27;;;;;;;;;;5067559;28;20984;-58
2021/01/09 11:59:21;;;;;;;24.73;14.37;;;;;;;;;;5060025;28;20765;-58
2021/01/09 12:01:47;;;;;;;30.07;14.00;;;;;;;;;;5060062;28;20938;-58
2021/01/09 12:04:13;;;;;;;24.40;13.00;;;;;;;;;;5055158;28;20548;-58
2021/01/09 12:06:39;;;;;;;21.23;13.33;;;;;;;;;;5058983;28;20446;-59
2021/01/09 12:09:05;;;;;;;19.17;12.53;;;;;;;;;;5055360;28;20609;-58
2021/01/09 12:11:32;;;;;;;21.53;13.20;;;;;;;;;;5054422;28;20219;-58
2021/01/09 12:13:58;;;;;;;22.47;12.70;;;;;;;;;;5061404;28;20422;-59
2021/01/09 12:16:31;;;;;;;19.90;12.77;;;;;;;;;;5068019;28;20462;-58
2021/01/09 12:18:57;;;;;;;21.03;12.23;;;;;;;;;;5056365;28;20414;-59
2021/01/09 12:21:23;;;;;;;23.00;13.43;;;;;;;;;;5055937;28;20418;-58
2021/01/09 12:23:50;;;;;;;20.03;12.57;;;;;;;;;;5054538;28;20867;-58
2021/01/09 12:26:17;;;;;;;19.17;11.47;;;;;;;;;;5060321;28;20439;-58
2021/01/09 12:28:43;;;;;;;17.93;11.47;;;;;;;;;;5052414;28;20419;-58
2021/01/09 12:31:09;;;;;;;21.10;12.20;;;;;;;;;;5053871;28;20808;-58
2021/01/09 12:33:35;;;;;;;19.43;11.33;;;;;;;;;;5053935;28;20215;-58
2021/01/09 12:36:01;;;;;;;19.07;12.40;;;;;;;;;;5064451;28;20626;-58
2021/01/09 12:38:27;;;;;;;17.10;10.73;;;;;;;;;;5053773;28;20710;-60
2021/01/09 12:40:53;;;;;;;17.57;12.23;;;;;;;;;;5053323;28;20419;-58
2021/01/09 12:43:19;;;;;;;20.00;11.97;;;;;;;;;;5053248;28;20462;-59
2021/01/09 12:45:45;;;;;;;16.67;11.27;;;;;;;;;;5051471;28;20585;-58
2021/01/09 12:48:11;;;;;;;18.07;12.07;;;;;;;;;;5051357;28;20435;-58
2021/01/09 12:50:43;;;;;;;18.23;11.40;;;;;;;;;;5033489;28;20382;-58
2021/01/09 12:53:09;;;;;;;17.40;11.07;;;;;;;;;;5063929;28;20184;-58
2021/01/09 12:55:38;;;;;;;19.70;12.20;;;;;;;;;;5051175;28;20460;-58
2021/01/09 12:58:04;;;;;;;22.17;12.07;;;;;;;;;;5038479;28;20434;-58
2021/01/09 13:00:30;;;;;;;15.40;11.93;;;;;;;;;;5070635;28;20420;-58
2021/01/09 13:02:56;;;;;;;17.60;11.20;;;;;;;;;;5058822;28;20471;-58
2021/01/09 13:05:22;;;;;;;19.60;11.67;;;;;;;;;;5055792;28;20436;-58
2021/01/09 13:07:49;;;;;;;17.13;11.07;;;;;;;;;;5053715;28;20527;-58
2021/01/09 13:10:15;;;;;;;20.50;11.57;;;;;;;;;;5052276;28;20268;-58
2021/01/09 13:12:41;;;;;;;16.03;11.97;;;;;;;;;;5037561;28;20902;-57
2021/01/09 13:15:07;;;;;;;18.43;11.80;;;;;;;;;;5051583;28;20448;-58
2021/01/09 13:17:33;;;;;;;19.23;12.37;;;;;;;;;;5057130;28;20439;-60
2021/01/09 13:20:01;;;;;;;17.63;12.40;;;;;;;;;;5065509;28;20422;-58
2021/01/09 13:22:27;;;;;;;18.17;11.87;;;;;;;;;;5058558;28;20204;-58
2021/01/09 13:24:53;;;;;;;17.20;12.03;;;;;;;;;;5067223;28;21210;-58
2021/01/09 13:27:19;;;;;;;21.93;11.93;;;;;;;;;;5056370;28;20435;-58
2021/01/09 13:29:45;;;;;;;16.30;11.90;;;;;;;;;;5058246;28;20799;-58
2021/01/09 13:32:11;;;;;;;14.80;11.43;;;;;;;;;;5060962;28;20960;-58
2021/01/09 13:34:37;;;;;;;17.77;12.07;;;;;;;;;;5031888;28;20438;-58
2021/01/09 13:37:04;;;;;;;19.43;12.10;;;;;;;;;;5050595;28;20462;-60
2021/01/09 13:39:30;;;;;;;19.03;12.20;;;;;;;;;;5040870;28;20487;-60
2021/01/09 13:41:56;;;;;;;15.23;11.47;;;;;;;;;;5027612;28;21061;-58
2021/01/09 13:44:22;;;;;;;19.13;11.30;;;;;;;;;;5064323;28;20473;-58
2021/01/09 13:46:48;;;;;;;18.50;12.13;;;;;;;;;;5080544;28;20189;-58
2021/01/09 13:49:15;;;;;;;16.23;11.67;;;;;;;;;;5052798;28;20269;-57
2021/01/09 13:51:41;;;;;;;17.23;12.17;;;;;;;;;;5065437;28;20937;-57
2021/01/09 13:54:10;;;;;;;17.47;11.40;;;;;;;;;;5068405;28;20427;-58
2021/01/09 13:56:36;;;;;;;13.97;10.70;;;;;;;;;;5053965;28;20459;-58
2021/01/09 13:59:03;;;;;;;17.83;12.30;;;;;;;;;;5050106;28;20458;-58
2021/01/09 14:01:30;;;;;;;18.17;12.30;;;;;;;;;;5050933;28;20984;-58
2021/01/09 14:03:56;;;;;;;16.47;11.40;;;;;;;;;;5053054;28;20478;-57
2021/01/09 14:06:22;;;;;;;17.80;11.57;;;;;;;;;;5032517;28;20548;-58
2021/01/09 14:08:48;;;;;;;19.67;12.33;;;;;;;;;;5053856;28;20443;-57
2021/01/09 14:11:14;;;;;;;17.50;12.40;;;;;;;;;;5052400;28;20458;-59
2021/01/09 14:13:40;;;;;;;18.17;11.97;;;;;;;;;;5061024;28;20538;-58
2021/01/09 14:16:06;;;;;;;21.30;14.30;;;;;;;;;;5059004;28;20984;-58
2021/01/09 14:18:33;;;;;;;21.00;13.80;;;;;;;;;;5051485;28;20427;-57
2021/01/09 14:20:59;;;;;;;19.53;13.57;;;;;;;;;;5055747;28;20467;-59
2021/01/09 14:23:25;;;;;;;21.10;13.43;;;;;;;;;;5022370;28;20443;-59
2021/01/09 14:25:54;;;;;;;18.60;13.17;;;;;;;;;;5042911;28;20427;-58
2021/01/09 14:28:21;;;;;;;20.40;13.87;;;;;;;;;;5044502;28;20474;-58
2021/01/09 14:30:48;;;;;;;19.33;13.63;;;;;;;;;;5056650;28;20458;-59
2021/01/09 14:33:16;;;;;;;19.80;13.67;;;;;;;;;;5052468;28;20898;-59
2021/01/09 14:35:42;;;;;;;21.93;13.80;;;;;;;;;;5052178;28;20459;-58